createdAt,value
2022-10-06T00:01:23.677Z,11.85
2022-10-06T00:03:51.829Z,7.70
2022-10-06T00:06:21.086Z,12.60
2022-10-06T00:08:49.556Z,8.95
2022-10-06T00:11:18.073Z,10.23
2022-10-06T00:13:46.050Z,10.70
2022-10-06T00:16:17.489Z,11.55
2022-10-06T00:18:47.158Z,11.75
2022-10-06T00:21:15.955Z,12.48
2022-10-06T00:23:44.032Z,17.98
2022-10-06T00:26:16.843Z,10.93
2022-10-06T00:28:45.284Z,14.98
2022-10-06T00:31:13.399Z,15.73
2022-10-06T00:33:41.580Z,9.23
2022-10-06T00:36:11.069Z,14.93
2022-10-06T00:38:39.073Z,11.10
2022-10-06T00:41:07.209Z,12.25
2022-10-06T00:43:45.313Z,11.57
2022-10-06T00:46:16.961Z,14.38
2022-10-06T00:48:47.483Z,11.43
2022-10-06T00:51:17.241Z,11.27
2022-10-06T00:53:45.328Z,15.05
2022-10-06T00:56:13.701Z,12.05
2022-10-06T00:58:41.764Z,10.55
2022-10-06T01:01:11.490Z,15.70
2022-10-06T01:03:43.986Z,9.10
2022-10-06T01:06:12.610Z,12.68
2022-10-06T01:08:42.332Z,10.38
2022-10-06T01:11:14.462Z,8.73
2022-10-06T01:13:44.661Z,9.07
2022-10-06T01:16:20.879Z,11.88
2022-10-06T01:18:49.632Z,9.45
2022-10-06T01:21:25.007Z,13.48
2022-10-06T01:23:54.733Z,16.02
2022-10-06T01:26:23.889Z,13.43
2022-10-06T01:28:52.573Z,13.20
2022-10-06T01:31:21.119Z,15.88
2022-10-06T01:33:53.145Z,11.23
2022-10-06T01:36:21.331Z,11.95
2022-10-06T01:38:49.281Z,12.05
2022-10-06T01:41:19.568Z,11.55
2022-10-06T01:43:47.593Z,14.80
2022-10-06T01:46:16.235Z,14.55
2022-10-06T01:48:44.553Z,11.93
2022-10-06T01:51:16.073Z,16.35
2022-10-06T01:53:44.419Z,17.20
2022-10-06T01:56:12.563Z,14.23
2022-10-06T01:58:41.997Z,11.80
2022-10-06T02:01:11.345Z,13.35
2022-10-06T02:03:41.203Z,11.48
2022-10-06T02:06:10.354Z,11.48
2022-10-06T02:08:38.625Z,10.98
2022-10-06T02:11:09.975Z,12.07
2022-10-06T02:13:38.399Z,13.32
2022-10-06T02:16:09.329Z,11.45
2022-10-06T02:18:38.090Z,11.70
2022-10-06T02:21:06.241Z,12.95
2022-10-06T02:23:34.673Z,14.15
2022-10-06T02:26:03.509Z,10.95
2022-10-06T02:28:32.703Z,13.60
2022-10-06T02:31:04.456Z,15.75
2022-10-06T02:33:35.189Z,9.48
2022-10-06T02:36:03.755Z,14.50
2022-10-06T02:38:32.589Z,13.60
2022-10-06T02:41:01.628Z,15.90
2022-10-06T02:43:31.659Z,15.23
2022-10-06T02:46:01.640Z,16.02
2022-10-06T02:48:31.243Z,10.77
2022-10-06T02:51:02.243Z,11.63
2022-10-06T02:53:30.732Z,10.23
2022-10-06T02:56:00.675Z,13.20
2022-10-06T02:58:30.350Z,14.52
2022-10-06T03:01:03.173Z,13.50
2022-10-06T03:03:32.010Z,12.70
2022-10-06T03:06:06.677Z,9.45
2022-10-06T03:08:34.911Z,10.48
2022-10-06T03:11:03.329Z,9.77
2022-10-06T03:13:32.526Z,13.23
2022-10-06T03:16:00.582Z,12.15
2022-10-06T03:18:31.439Z,14.10
2022-10-06T03:21:02.156Z,13.27
2022-10-06T03:23:31.814Z,14.68
2022-10-06T03:26:00.295Z,10.85
2022-10-06T03:28:28.904Z,14.18
2022-10-06T03:31:02.783Z,14.02
2022-10-06T03:33:31.729Z,13.02
2022-10-06T03:36:00.760Z,11.27
2022-10-06T03:38:29.156Z,12.82
2022-10-06T03:41:06.340Z,11.52
2022-10-06T03:43:34.801Z,12.13
2022-10-06T03:46:04.004Z,10.70
2022-10-06T03:48:33.491Z,14.18
2022-10-06T03:51:03.366Z,19.20
2022-10-06T03:53:32.294Z,14.65
2022-10-06T03:56:01.438Z,9.80
2022-10-06T03:58:32.773Z,12.95
2022-10-06T04:01:02.719Z,13.43
2022-10-06T04:03:30.945Z,14.98
2022-10-06T04:06:00.844Z,12.75
2022-10-06T04:08:29.983Z,10.73
2022-10-06T04:11:06.259Z,12.77
2022-10-06T04:13:36.215Z,8.85
2022-10-06T04:16:12.681Z,13.20
2022-10-06T04:18:40.799Z,13.02
2022-10-06T04:21:08.931Z,11.45
2022-10-06T04:23:37.595Z,13.40
2022-10-06T04:26:09.939Z,13.98
2022-10-06T04:28:40.271Z,10.68
2022-10-06T04:31:12.994Z,10.40
2022-10-06T04:33:41.224Z,9.93
2022-10-06T04:36:17.230Z,11.45
2022-10-06T04:38:45.443Z,13.35
2022-10-06T04:41:15.169Z,13.68
2022-10-06T04:43:46.451Z,13.55
2022-10-06T04:46:40.975Z,11.80
2022-10-06T04:49:03.433Z,8.57
2022-10-06T04:51:31.434Z,13.50
2022-10-06T04:53:59.746Z,12.10
2022-10-06T04:56:29.602Z,12.07
2022-10-06T04:59:00.066Z,13.57
2022-10-06T05:01:29.880Z,13.52
2022-10-06T05:03:59.593Z,12.50
2022-10-06T05:06:28.854Z,13.68
2022-10-06T05:08:58.532Z,11.40
2022-10-06T05:11:26.874Z,11.95
2022-10-06T05:13:57.357Z,11.80
2022-10-06T05:16:29.291Z,13.00
2022-10-06T05:18:57.594Z,14.00
2022-10-06T05:21:27.463Z,17.33
2022-10-06T05:23:55.538Z,17.08
2022-10-06T05:26:25.223Z,15.77
2022-10-06T05:28:53.218Z,15.10
2022-10-06T05:31:22.973Z,15.07
2022-10-06T05:33:52.371Z,14.07
2022-10-06T05:36:22.052Z,20.67
2022-10-06T05:38:50.199Z,17.08
2022-10-06T05:41:21.029Z,18.30
2022-10-06T05:43:49.535Z,14.25
2022-10-06T05:46:20.589Z,14.93
2022-10-06T05:48:49.292Z,15.43
2022-10-06T05:51:20.692Z,17.38
2022-10-06T05:53:48.768Z,22.13
2022-10-06T05:56:19.160Z,19.75
2022-10-06T05:58:48.623Z,23.90
2022-10-06T06:01:18.450Z,23.75
2022-10-06T06:03:49.833Z,24.20
2022-10-06T06:06:21.446Z,28.50
2022-10-06T06:08:53.158Z,26.88
2022-10-06T06:11:25.374Z,27.15
2022-10-06T06:13:53.684Z,28.63
2022-10-06T06:16:20.755Z,28.17
2022-10-06T06:18:48.788Z,28.08
2022-10-06T06:21:18.372Z,29.13
2022-10-06T06:23:48.594Z,31.23
2022-10-06T06:26:18.318Z,29.50
2022-10-06T06:28:48.548Z,29.33
2022-10-06T06:31:20.411Z,29.17
2022-10-06T06:33:51.544Z,28.02
2022-10-06T06:36:22.769Z,26.92
2022-10-06T06:38:52.597Z,25.88
2022-10-06T06:41:22.261Z,26.88
2022-10-06T06:43:50.850Z,27.73
2022-10-06T06:46:20.414Z,28.20
2022-10-06T06:48:49.944Z,29.25
2022-10-06T06:51:19.249Z,29.10
2022-10-06T06:53:49.624Z,28.70
2022-10-06T06:56:17.927Z,30.27
2022-10-06T06:58:47.648Z,29.38
2022-10-06T07:01:17.873Z,29.25
2022-10-06T07:04:03.645Z,32.08
2022-10-06T07:06:32.413Z,29.50
2022-10-06T07:09:02.463Z,30.50
2022-10-06T07:11:32.091Z,31.25
2022-10-06T07:14:03.181Z,31.98
2022-10-06T07:16:50.130Z,29.98
2022-10-06T07:19:36.701Z,30.40
2022-10-06T07:22:32.354Z,30.85
2022-10-06T07:25:12.642Z,31.00
2022-10-06T07:27:43.145Z,31.50
2022-10-06T07:30:13.394Z,30.80
2022-10-06T07:32:41.684Z,31.33
2022-10-06T07:35:12.982Z,30.90
2022-10-06T07:37:42.985Z,30.02
2022-10-06T07:40:13.261Z,31.75
2022-10-06T07:42:52.328Z,30.83
2022-10-06T07:45:41.645Z,29.83
2022-10-06T07:48:14.483Z,24.27
2022-10-06T07:50:43.777Z,24.38
2022-10-06T07:53:11.867Z,27.35
2022-10-06T07:55:44.637Z,27.00
2022-10-06T07:58:14.227Z,24.80
2022-10-06T08:00:42.572Z,21.58
2022-10-06T08:03:12.002Z,19.38
2022-10-06T08:05:40.259Z,17.85
2022-10-06T08:08:11.066Z,15.95
2022-10-06T08:10:40.926Z,13.70
2022-10-06T08:13:10.300Z,15.25
2022-10-06T08:15:38.522Z,16.25
2022-10-06T08:18:21.273Z,11.02
2022-10-06T08:20:49.672Z,11.60
2022-10-06T08:23:17.643Z,8.10
2022-10-06T08:25:53.698Z,8.10
2022-10-06T08:28:24.277Z,10.75
2022-10-06T08:30:52.545Z,10.63
2022-10-06T08:33:21.562Z,11.60
2022-10-06T08:35:49.675Z,10.02
2022-10-06T08:38:18.111Z,10.23
2022-10-06T08:40:47.665Z,8.15
2022-10-06T08:43:24.967Z,9.57
2022-10-06T08:46:00.294Z,8.50
2022-10-06T08:48:38.596Z,6.65
2022-10-06T08:51:18.805Z,10.75
2022-10-06T08:53:57.881Z,7.13
2022-10-06T08:56:34.136Z,9.65
2022-10-06T08:59:06.699Z,9.90
2022-10-06T09:01:42.122Z,8.00
2022-10-06T09:04:15.966Z,7.15
2022-10-06T09:06:51.336Z,5.93
2022-10-06T09:09:36.123Z,7.43
2022-10-06T09:12:11.451Z,11.82
2022-10-06T09:14:49.220Z,12.45
2022-10-06T09:17:25.041Z,8.68
2022-10-06T09:19:57.936Z,8.52
2022-10-06T09:22:30.825Z,8.82
2022-10-06T09:25:02.332Z,8.27
2022-10-06T09:27:34.279Z,5.75
2022-10-06T09:30:06.169Z,10.35
2022-10-06T09:32:35.675Z,12.63
2022-10-06T09:35:17.951Z,13.10
2022-10-06T09:37:55.172Z,11.90
2022-10-06T09:40:38.833Z,9.27
2022-10-06T09:43:19.489Z,9.07
2022-10-06T09:45:52.167Z,7.18
2022-10-06T09:48:24.982Z,9.05
2022-10-06T09:51:15.253Z,8.73
2022-10-06T09:53:43.596Z,6.40
2022-10-06T09:56:19.035Z,9.18
2022-10-06T09:58:56.443Z,17.45
2022-10-06T10:01:28.031Z,11.55
2022-10-06T10:04:20.887Z,9.57
2022-10-06T10:06:49.261Z,12.05
2022-10-06T10:09:30.682Z,7.60
2022-10-06T10:12:21.791Z,13.23
2022-10-06T10:14:49.740Z,10.45
2022-10-06T10:17:22.677Z,10.60
2022-10-06T10:19:54.374Z,12.18
2022-10-06T10:22:25.288Z,9.02
2022-10-06T10:25:02.243Z,11.55
2022-10-06T10:27:39.272Z,11.90
2022-10-06T10:30:10.493Z,9.50
2022-10-06T10:32:53.383Z,12.05
2022-10-06T10:35:27.127Z,7.50
2022-10-06T10:38:01.932Z,8.32
2022-10-06T10:40:42.978Z,7.75
2022-10-06T10:43:23.110Z,9.38
2022-10-06T10:45:56.336Z,7.85
2022-10-06T10:48:31.875Z,10.73
2022-10-06T10:51:06.336Z,9.00
2022-10-06T10:53:44.773Z,7.93
2022-10-06T10:56:16.231Z,6.85
2022-10-06T10:58:45.476Z,9.70
2022-10-06T11:01:26.621Z,8.38
2022-10-06T11:04:00.910Z,9.35
2022-10-06T11:06:54.332Z,10.38
2022-10-06T11:09:28.619Z,8.63
2022-10-06T11:12:08.272Z,5.95
2022-10-06T11:14:54.578Z,9.90
2022-10-06T11:17:40.036Z,10.65
2022-10-06T11:20:29.867Z,9.57
2022-10-06T11:23:05.286Z,10.73
2022-10-06T11:25:38.938Z,9.23
2022-10-06T11:28:13.463Z,7.82
2022-10-06T11:30:56.819Z,14.95
2022-10-06T11:33:30.521Z,13.32
2022-10-06T11:36:01.544Z,11.07
2022-10-06T11:38:40.342Z,7.65
2022-10-06T11:41:13.890Z,5.60
2022-10-06T11:43:51.045Z,11.77
2022-10-06T11:46:32.150Z,9.88
2022-10-06T11:49:39.430Z,5.80
2022-10-06T11:52:37.402Z,11.93
2022-10-06T11:55:14.208Z,8.48
2022-10-06T11:58:37.383Z,7.07
2022-10-06T12:00:58.612Z,13.07
2022-10-06T12:03:48.710Z,8.48
2022-10-06T12:06:54.213Z,7.45
2022-10-06T12:09:41.337Z,12.35
2022-10-06T12:12:47.792Z,9.20
2022-10-06T12:19:04.533Z,15.52
2022-10-06T12:21:50.813Z,12.20
2022-10-06T12:24:43.887Z,12.32
2022-10-06T12:27:27.800Z,6.43
2022-10-06T12:30:02.989Z,8.23
2022-10-06T12:32:46.508Z,14.32
2022-10-06T12:35:25.967Z,5.90
2022-10-06T12:37:55.063Z,9.23
2022-10-06T12:40:49.373Z,16.48
2022-10-06T12:43:36.433Z,6.72
2022-10-06T12:46:08.060Z,5.85
2022-10-06T12:48:41.424Z,7.20
2022-10-06T12:51:23.037Z,9.52
2022-10-06T12:53:59.849Z,7.95
2022-10-06T12:56:32.429Z,14.00
2022-10-06T12:59:19.889Z,7.70
2022-10-06T13:01:48.782Z,8.77
2022-10-06T13:04:38.139Z,7.03
2022-10-06T13:07:14.850Z,8.88
2022-10-06T13:09:43.468Z,6.38
2022-10-06T13:12:22.306Z,9.55
2022-10-06T13:15:10.680Z,7.50
2022-10-06T13:17:42.054Z,9.50
2022-10-06T13:20:30.348Z,8.32
2022-10-06T13:23:00.913Z,7.60
2022-10-06T13:25:41.269Z,8.73
2022-10-06T13:28:21.830Z,7.13
2022-10-06T13:30:56.224Z,6.72
2022-10-06T13:33:26.274Z,7.13
2022-10-06T13:35:56.132Z,8.45
2022-10-06T13:38:24.334Z,7.88
2022-10-06T13:41:17.365Z,6.18
2022-10-06T13:43:48.684Z,6.03
2022-10-06T13:46:21.126Z,10.30
2022-10-06T13:48:52.332Z,14.40
2022-10-06T13:51:23.437Z,11.25
2022-10-06T13:53:52.696Z,5.45
2022-10-06T13:56:36.190Z,17.48
2022-10-06T13:59:41.165Z,10.25
2022-10-06T14:02:26.537Z,12.50
2022-10-06T14:05:30.374Z,9.73
2022-10-06T14:08:01.311Z,11.85
2022-10-06T14:10:33.592Z,6.68
2022-10-06T14:13:02.383Z,10.45
2022-10-06T14:15:35.381Z,6.60
2022-10-06T14:18:06.084Z,9.77
2022-10-06T14:20:42.787Z,8.77
2022-10-06T14:23:33.166Z,9.68
2022-10-06T14:26:01.335Z,9.43
2022-10-06T14:28:29.374Z,6.80
2022-10-06T14:31:00.354Z,10.00
2022-10-06T14:33:30.214Z,11.90
2022-10-06T14:35:58.587Z,13.30
2022-10-06T14:38:26.538Z,9.45
2022-10-06T14:40:54.591Z,12.02
2022-10-06T14:43:22.590Z,12.05
2022-10-06T14:45:50.533Z,12.68
2022-10-06T14:48:18.509Z,11.68
2022-10-06T14:50:47.986Z,10.18
2022-10-06T14:53:17.590Z,9.63
2022-10-06T14:55:46.687Z,9.38
2022-10-06T14:58:14.776Z,9.90
2022-10-06T15:00:44.155Z,12.38
2022-10-06T15:03:12.301Z,8.48
2022-10-06T15:06:00.508Z,9.82
2022-10-06T15:08:30.691Z,11.82
2022-10-06T15:10:58.733Z,9.23
2022-10-06T15:13:26.649Z,9.07
2022-10-06T15:16:00.014Z,14.15
2022-10-06T15:18:28.061Z,10.38
2022-10-06T15:21:02.759Z,11.60
2022-10-06T15:23:32.217Z,9.68
2022-10-06T15:26:17.480Z,10.25
2022-10-06T15:29:03.636Z,13.63
2022-10-06T15:31:34.828Z,10.98
2022-10-06T15:34:04.341Z,10.57
2022-10-06T15:36:34.692Z,10.52
2022-10-06T15:39:08.089Z,8.43
2022-10-06T15:41:36.906Z,8.85
2022-10-06T15:44:06.402Z,10.82
2022-10-06T15:46:37.212Z,9.45
2022-10-06T15:49:07.456Z,12.00
2022-10-06T15:51:38.551Z,8.48
2022-10-06T15:54:08.055Z,9.13
2022-10-06T15:56:37.532Z,6.90
2022-10-06T15:59:06.022Z,11.15
2022-10-06T16:01:43.066Z,13.60
2022-10-06T16:04:29.333Z,7.78
2022-10-06T16:06:57.838Z,9.10
2022-10-06T16:09:29.269Z,7.03
2022-10-06T16:11:58.386Z,7.28
2022-10-06T16:14:27.263Z,10.48
2022-10-06T16:16:59.581Z,9.98
2022-10-06T16:19:29.470Z,12.88
2022-10-06T16:21:59.077Z,10.68
2022-10-06T16:24:28.715Z,9.82
2022-10-06T16:26:58.105Z,8.25
2022-10-06T16:29:26.511Z,8.48
2022-10-06T16:31:54.918Z,9.05
2022-10-06T16:34:23.265Z,11.88
2022-10-06T16:36:51.366Z,9.40
2022-10-06T16:39:21.265Z,14.02
2022-10-06T16:41:51.887Z,8.80
2022-10-06T16:44:19.903Z,9.73
2022-10-06T16:46:49.867Z,9.85
2022-10-06T16:49:19.816Z,18.40
2022-10-06T16:51:47.720Z,19.58
2022-10-06T16:54:17.207Z,11.27
2022-10-06T16:56:47.235Z,8.98
2022-10-06T16:59:17.909Z,10.30
2022-10-06T17:01:46.813Z,9.10
2022-10-06T17:04:21.323Z,6.65
2022-10-06T17:06:51.535Z,8.23
2022-10-06T17:09:20.866Z,10.82
2022-10-06T17:11:51.253Z,7.90
2022-10-06T17:14:21.985Z,11.98
2022-10-06T17:16:52.602Z,11.70
2022-10-06T17:19:22.220Z,10.65
2022-10-06T17:21:55.600Z,16.52
2022-10-06T17:24:27.918Z,13.07
2022-10-06T17:26:59.509Z,12.80
2022-10-06T17:29:29.223Z,5.55
2022-10-06T17:31:59.277Z,10.73
2022-10-06T17:34:33.422Z,15.35
2022-10-06T17:37:03.102Z,10.55
2022-10-06T17:39:32.118Z,12.77
2022-10-06T17:42:00.271Z,10.23
2022-10-06T17:44:31.195Z,9.57
2022-10-06T17:47:00.630Z,7.97
2022-10-06T17:49:30.447Z,9.55
2022-10-06T17:51:58.802Z,12.45
2022-10-06T17:54:28.633Z,7.68
2022-10-06T17:57:01.120Z,10.32
2022-10-06T17:59:33.136Z,8.68
2022-10-06T18:02:03.036Z,12.45
2022-10-06T18:04:31.541Z,9.50
2022-10-06T18:07:03.950Z,12.30
2022-10-06T18:09:33.055Z,10.18
2022-10-06T18:12:02.016Z,11.63
2022-10-06T18:14:33.816Z,11.20
2022-10-06T18:17:03.909Z,14.02
2022-10-06T18:19:34.218Z,13.80
2022-10-06T18:22:04.981Z,15.40
2022-10-06T18:24:33.842Z,11.80
2022-10-06T18:27:02.167Z,9.85
2022-10-06T18:29:34.012Z,9.82
2022-10-06T18:37:41.776Z,16.23
2022-10-06T18:40:11.275Z,10.35
2022-10-06T18:42:39.905Z,12.00
2022-10-06T18:45:29.565Z,11.48
2022-10-06T18:48:18.088Z,8.23
2022-10-06T18:50:47.079Z,12.75
2022-10-06T18:53:15.146Z,11.55
2022-10-06T18:55:43.146Z,15.00
2022-10-06T18:58:11.286Z,12.75
2022-10-06T19:00:40.715Z,13.18
2022-10-06T19:03:08.615Z,12.05
2022-10-06T19:05:36.676Z,11.38
2022-10-06T19:08:05.198Z,12.88
2022-10-06T19:10:55.456Z,14.02
2022-10-06T19:13:24.322Z,13.80
2022-10-06T19:15:54.467Z,10.30
2022-10-06T19:18:22.557Z,14.30
2022-10-06T19:20:52.315Z,15.95
2022-10-06T19:23:20.470Z,13.55
2022-10-06T19:25:49.794Z,12.80
2022-10-06T19:28:18.004Z,12.68
2022-10-06T19:30:56.643Z,12.20
2022-10-06T19:33:27.022Z,15.10
2022-10-06T19:35:55.961Z,15.70
2022-10-06T19:38:25.031Z,22.05
2022-10-06T19:40:53.203Z,16.23
2022-10-06T19:43:22.009Z,16.10
2022-10-06T19:45:57.932Z,17.45
2022-10-06T19:48:29.473Z,22.05
2022-10-06T19:50:57.664Z,19.45
2022-10-06T19:53:26.903Z,21.02
2022-10-06T19:56:01.886Z,23.95
2022-10-06T19:58:29.819Z,24.08
2022-10-06T20:00:57.895Z,25.40
2022-10-06T20:03:27.354Z,25.48
2022-10-06T20:05:55.345Z,25.20
2022-10-06T20:08:23.286Z,26.35
2022-10-06T20:10:51.249Z,28.70
2022-10-06T20:13:19.450Z,27.73
2022-10-06T20:15:47.561Z,32.38
2022-10-06T20:18:15.775Z,31.20
2022-10-06T20:20:45.350Z,29.65
2022-10-06T20:23:13.322Z,31.08
2022-10-06T20:25:41.276Z,30.10
2022-10-06T20:28:10.478Z,31.30
2022-10-06T20:30:38.607Z,32.85
2022-10-06T20:33:07.430Z,33.45
2022-10-06T20:35:35.398Z,34.53
2022-10-06T20:38:08.808Z,34.72
2022-10-06T20:40:47.056Z,35.05
2022-10-06T20:43:15.449Z,34.80
2022-10-06T20:45:43.512Z,35.72
2022-10-06T20:48:14.199Z,35.13
2022-10-06T20:50:43.364Z,34.95
2022-10-06T20:53:13.050Z,37.35
2022-10-06T20:55:40.999Z,38.97
2022-10-06T20:58:11.897Z,38.40
2022-10-06T21:00:39.768Z,38.47
2022-10-06T21:03:08.756Z,38.17
2022-10-06T21:05:36.667Z,39.38
2022-10-06T21:08:04.572Z,40.78
2022-10-06T21:10:33.872Z,38.90
2022-10-06T21:13:01.878Z,39.92
2022-10-06T21:15:29.879Z,38.95
2022-10-06T21:17:57.871Z,39.38
2022-10-06T21:20:25.753Z,39.42
2022-10-06T21:22:53.748Z,38.85
2022-10-06T21:25:21.710Z,37.97
2022-10-06T21:27:51.060Z,38.80
2022-10-06T21:30:19.205Z,38.97
2022-10-06T21:32:47.121Z,39.55
2022-10-06T21:35:14.986Z,39.78
2022-10-06T21:37:43.160Z,40.95
2022-10-06T21:40:11.634Z,39.53
2022-10-06T21:42:39.639Z,39.88
2022-10-06T21:45:09.640Z,37.80
2022-10-06T21:47:37.546Z,38.83
2022-10-06T21:50:05.927Z,38.67
2022-10-06T21:52:33.933Z,39.17
2022-10-06T21:55:01.797Z,40.58
2022-10-06T21:57:29.824Z,39.72
2022-10-06T21:59:57.766Z,39.90
2022-10-06T22:02:27.533Z,39.33
2022-10-06T22:04:55.372Z,39.05
2022-10-06T22:07:23.463Z,38.40
2022-10-06T22:09:51.426Z,38.95
2022-10-06T22:12:19.538Z,37.70
2022-10-06T22:14:47.458Z,39.33
2022-10-06T22:17:15.670Z,39.55
2022-10-06T22:19:45.110Z,37.53
2022-10-06T22:22:13.111Z,39.47
2022-10-06T22:24:40.972Z,37.38
2022-10-06T22:27:08.942Z,40.55
2022-10-06T22:29:36.842Z,40.20
2022-10-06T22:32:04.783Z,38.58
2022-10-06T22:34:32.709Z,39.45
2022-10-06T22:37:02.243Z,38.50
2022-10-06T22:39:30.187Z,39.60
2022-10-06T22:41:58.518Z,41.10
2022-10-06T22:44:26.588Z,39.40
2022-10-06T22:46:54.565Z,39.90
2022-10-06T22:49:22.515Z,40.00
2022-10-06T22:51:50.402Z,38.03
2022-10-06T22:54:22.150Z,40.85
2022-10-06T22:56:50.072Z,40.80
2022-10-06T22:59:17.974Z,40.78
2022-10-06T23:01:45.931Z,39.33
2022-10-06T23:04:13.871Z,40.22
2022-10-06T23:06:41.889Z,39.50
2022-10-06T23:09:09.815Z,39.10
2022-10-06T23:11:39.154Z,40.10
2022-10-06T23:14:07.072Z,40.85
2022-10-06T23:16:35.145Z,41.17
2022-10-06T23:19:03.109Z,39.45
2022-10-06T23:21:32.179Z,40.55
2022-10-06T23:24:01.095Z,42.08
2022-10-06T23:26:29.333Z,41.15
2022-10-06T23:29:00.870Z,41.40
2022-10-06T23:31:29.643Z,40.78
2022-10-06T23:33:57.798Z,39.80
2022-10-06T23:36:25.740Z,40.70
2022-10-06T23:38:53.694Z,40.25
2022-10-06T23:41:21.698Z,40.30
2022-10-06T23:43:49.633Z,41.95
2022-10-06T23:46:20.163Z,41.78
2022-10-06T23:48:48.248Z,42.60
2022-10-06T23:51:16.934Z,42.28
2022-10-06T23:53:45.492Z,41.88
2022-10-06T23:56:13.808Z,41.33
2022-10-06T23:58:42.794Z,42.58
